createdAt,value
2019-05-07T00:00:43.596Z,88.45
2019-05-07T00:03:09.664Z,88.01
2019-05-07T00:05:37.203Z,87.47
2019-05-07T00:08:04.226Z,87.41
2019-05-07T00:10:33.160Z,87.08
2019-05-07T00:13:02.267Z,87.35
2019-05-07T00:15:32.890Z,88.26
2019-05-07T00:18:00.256Z,87.74
2019-05-07T00:20:27.271Z,87.30
2019-05-07T00:22:54.412Z,87.44
2019-05-07T00:25:22.825Z,87.32
2019-05-07T00:27:52.261Z,87.93
2019-05-07T00:30:19.119Z,87.92
2019-05-07T00:32:46.192Z,86.65
2019-05-07T00:35:16.467Z,86.73
2019-05-07T00:37:48.820Z,87.32
2019-05-07T00:40:36.356Z,86.06
2019-05-07T00:43:12.047Z,86.69
2019-05-07T00:45:48.095Z,87.05
2019-05-07T00:48:15.179Z,86.75
2019-05-07T00:50:44.100Z,87.75
2019-05-07T00:53:13.060Z,87.63
2019-05-07T00:55:42.294Z,87.31
2019-05-07T00:58:09.264Z,86.90
2019-05-07T01:00:36.885Z,85.92
2019-05-07T01:03:04.312Z,85.72
2019-05-07T01:05:32.604Z,86.66
2019-05-07T01:07:59.824Z,86.69
2019-05-07T01:10:26.926Z,86.33
2019-05-07T01:12:55.500Z,87.04
2019-05-07T01:15:30.997Z,86.19
2019-05-07T01:17:52.067Z,85.38
2019-05-07T01:20:21.974Z,85.56
2019-05-07T01:22:49.248Z,85.50
2019-05-07T01:25:19.308Z,86.12
2019-05-07T01:27:46.344Z,85.50
2019-05-07T01:30:13.758Z,84.62
2019-05-07T01:32:55.644Z,85.35
2019-05-07T01:35:28.221Z,84.63
2019-05-07T01:37:55.268Z,84.34
2019-05-07T01:40:23.124Z,84.52
2019-05-07T01:42:50.189Z,86.27
2019-05-07T01:45:17.249Z,85.83
2019-05-07T01:47:44.429Z,84.62
2019-05-07T01:50:13.388Z,85.63
2019-05-07T01:52:42.729Z,85.02
2019-05-07T01:55:09.882Z,84.42
2019-05-07T01:57:36.989Z,84.21
2019-05-07T02:00:06.051Z,84.18
2019-05-07T02:02:43.240Z,84.48
2019-05-07T02:05:26.503Z,84.99
2019-05-07T02:07:57.584Z,85.06
2019-05-07T02:10:49.871Z,85.75
2019-05-07T02:13:17.217Z,85.86
2019-05-07T02:15:57.284Z,86.02
2019-05-07T02:18:13.165Z,85.65
2019-05-07T02:20:42.480Z,86.03
2019-05-07T02:23:09.549Z,86.02
2019-05-07T02:25:36.951Z,85.63
2019-05-07T02:28:04.262Z,85.18
2019-05-07T02:30:34.604Z,85.19
2019-05-07T02:33:03.419Z,85.23
2019-05-07T02:35:33.038Z,85.16
2019-05-07T02:38:19.217Z,85.65
2019-05-07T02:40:53.458Z,85.92
2019-05-07T02:43:22.771Z,86.05
2019-05-07T02:46:17.464Z,86.79
2019-05-07T02:48:33.510Z,87.05
2019-05-07T02:51:06.637Z,88.07
2019-05-07T02:53:57.857Z,87.56
2019-05-07T02:56:25.224Z,87.60
2019-05-07T02:58:52.841Z,86.94
2019-05-07T03:01:22.470Z,86.67
2019-05-07T03:03:49.010Z,86.40
2019-05-07T03:06:16.018Z,85.95
2019-05-07T03:08:44.183Z,85.46
2019-05-07T03:11:14.039Z,84.93
2019-05-07T03:13:43.250Z,85.11
2019-05-07T03:16:12.841Z,85.06
2019-05-07T03:18:43.868Z,84.83
2019-05-07T03:21:16.178Z,84.73
2019-05-07T03:23:53.826Z,84.82
2019-05-07T03:26:23.690Z,84.48
2019-05-07T03:28:55.846Z,84.79
2019-05-07T03:31:46.902Z,84.78
2019-05-07T03:34:25.608Z,84.75
2019-05-07T03:36:55.713Z,85.35
2019-05-07T03:39:23.803Z,85.89
2019-05-07T03:41:52.917Z,85.37
2019-05-07T03:44:26.865Z,86.11
2019-05-07T03:47:02.114Z,85.63
2019-05-07T03:49:29.508Z,86.39
2019-05-07T03:51:56.581Z,85.67
2019-05-07T03:54:24.122Z,86.02
2019-05-07T03:56:52.985Z,85.81
2019-05-07T03:59:23.372Z,86.30
2019-05-07T04:01:53.870Z,86.29
2019-05-07T04:04:23.004Z,86.00
2019-05-07T04:06:53.605Z,85.80
2019-05-07T04:09:19.474Z,87.08
2019-05-07T04:11:46.718Z,87.35
2019-05-07T04:14:14.572Z,88.14
2019-05-07T04:16:44.111Z,87.65
2019-05-07T04:19:13.216Z,86.96
2019-05-07T04:21:39.883Z,86.07
2019-05-07T04:24:23.683Z,85.46
2019-05-07T04:26:57.516Z,84.84
2019-05-07T04:29:24.643Z,84.45
2019-05-07T04:31:53.263Z,84.29
2019-05-07T04:34:44.379Z,84.20
2019-05-07T04:37:13.239Z,83.35
2019-05-07T04:39:53.786Z,83.86
2019-05-07T04:42:24.357Z,84.02
2019-05-07T04:44:53.888Z,83.68
2019-05-07T04:47:36.956Z,83.15
2019-05-07T04:49:53.441Z,82.89
2019-05-07T04:52:33.648Z,82.74
2019-05-07T04:55:04.121Z,82.49
2019-05-07T04:57:33.907Z,82.22
2019-05-07T05:00:03.743Z,82.25
2019-05-07T05:02:45.829Z,81.76
2019-05-07T05:05:15.346Z,81.50
2019-05-07T05:07:49.258Z,80.87
2019-05-07T05:10:16.483Z,83.80
2019-05-07T05:12:43.714Z,83.46
2019-05-07T05:15:13.381Z,82.27
2019-05-07T05:17:50.051Z,82.33
2019-05-07T05:20:10.082Z,80.97
2019-05-07T05:22:47.459Z,81.99
2019-05-07T05:25:36.536Z,82.57
2019-05-07T05:28:03.583Z,81.41
2019-05-07T05:30:37.923Z,81.38
2019-05-07T05:33:04.977Z,83.01
2019-05-07T05:35:32.256Z,83.43
2019-05-07T05:37:59.652Z,81.83
2019-05-07T05:40:28.582Z,81.57
2019-05-07T05:43:02.485Z,80.67
2019-05-07T05:45:42.823Z,80.24
2019-05-07T05:48:09.925Z,80.14
2019-05-07T05:51:04.186Z,80.27
2019-05-07T05:53:43.479Z,80.53
2019-05-07T05:56:19.157Z,81.10
2019-05-07T05:58:57.834Z,80.99
2019-05-07T06:01:43.738Z,78.82
2019-05-07T06:04:32.760Z,77.70
2019-05-07T06:07:11.311Z,77.17
2019-05-07T06:09:38.615Z,79.88
2019-05-07T06:12:28.281Z,78.18
2019-05-07T06:15:01.782Z,77.93
2019-05-07T06:17:47.169Z,78.58
2019-05-07T06:20:35.314Z,80.53
2019-05-07T06:23:16.115Z,80.81
2019-05-07T06:25:44.145Z,78.24
2019-05-07T06:28:12.688Z,77.31
2019-05-07T06:30:41.839Z,77.92
2019-05-07T06:33:08.904Z,77.67
2019-05-07T06:35:35.979Z,77.82
2019-05-07T06:38:04.834Z,77.33
2019-05-07T06:40:42.568Z,77.24
2019-05-07T06:43:24.103Z,76.34
2019-05-07T06:45:55.575Z,78.39
2019-05-07T06:48:38.109Z,74.42
2019-05-07T06:50:57.784Z,72.23
2019-05-07T06:53:29.771Z,72.95
2019-05-07T06:55:58.396Z,72.57
2019-05-07T06:58:32.675Z,72.13
2019-05-07T07:01:24.900Z,71.48
2019-05-07T07:04:27.658Z,69.81
2019-05-07T07:07:01.952Z,67.71
2019-05-07T07:09:38.792Z,71.41
2019-05-07T07:12:09.644Z,68.94
2019-05-07T07:14:36.600Z,72.02
2019-05-07T07:17:03.833Z,70.11
2019-05-07T07:19:32.186Z,65.52
2019-05-07T07:22:02.222Z,64.01
2019-05-07T07:24:29.404Z,60.97
2019-05-07T07:26:56.508Z,59.45
2019-05-07T07:29:26.237Z,58.58
2019-05-07T07:31:56.844Z,59.14
2019-05-07T07:34:25.276Z,56.65
2019-05-07T07:37:08.621Z,55.22
2019-05-07T07:39:33.016Z,52.95
2019-05-07T07:42:04.847Z,55.28
2019-05-07T07:44:32.963Z,61.25
2019-05-07T07:47:02.462Z,59.79
2019-05-07T07:49:29.352Z,59.15
2019-05-07T07:51:56.385Z,56.67
2019-05-07T07:54:23.525Z,54.57
2019-05-07T07:57:06.258Z,55.43
2019-05-07T07:59:45.924Z,57.82
2019-05-07T08:02:37.768Z,58.46
2019-05-07T08:05:05.359Z,59.59
2019-05-07T08:07:33.073Z,58.74
2019-05-07T08:10:02.578Z,54.27
2019-05-07T08:12:29.788Z,56.59
2019-05-07T08:15:13.529Z,56.22
2019-05-07T08:17:26.130Z,55.14
2019-05-07T08:19:53.468Z,53.16
2019-05-07T08:22:22.610Z,52.91
2019-05-07T08:24:51.902Z,51.48
2019-05-07T08:27:19.073Z,49.35
2019-05-07T08:29:46.312Z,50.00
2019-05-07T08:32:29.851Z,46.67
2019-05-07T08:35:02.464Z,48.48
2019-05-07T08:37:31.660Z,46.41
2019-05-07T08:39:58.498Z,48.68
2019-05-07T08:42:25.496Z,46.70
2019-05-07T08:45:02.937Z,47.20
2019-05-07T08:47:42.615Z,43.63
2019-05-07T08:50:11.814Z,38.10
2019-05-07T08:52:39.430Z,39.29
2019-05-07T08:55:07.083Z,43.48
2019-05-07T08:57:34.214Z,42.16
2019-05-07T09:00:04.474Z,43.64
2019-05-07T09:02:32.580Z,41.85
2019-05-07T09:04:59.848Z,41.71
2019-05-07T09:07:26.867Z,45.40
2019-05-07T09:09:53.892Z,46.94
2019-05-07T09:12:23.004Z,48.56
2019-05-07T09:14:50.134Z,47.85
2019-05-07T09:17:17.187Z,49.45
2019-05-07T09:19:51.213Z,49.29
2019-05-07T09:22:15.244Z,49.57
2019-05-07T09:24:42.623Z,49.99
2019-05-07T09:27:28.097Z,49.87
2019-05-07T09:30:13.487Z,48.32
2019-05-07T09:33:03.410Z,50.34
2019-05-07T09:35:39.742Z,50.66
2019-05-07T09:38:06.518Z,49.73
2019-05-07T09:40:33.894Z,48.78
2019-05-07T09:43:02.507Z,48.56
2019-05-07T09:45:32.915Z,48.23
2019-05-07T09:48:02.617Z,47.34
2019-05-07T09:50:29.750Z,45.30
2019-05-07T09:52:56.802Z,48.09
2019-05-07T09:55:24.235Z,47.98
2019-05-07T09:57:52.741Z,49.29
2019-05-07T10:00:22.499Z,49.58
2019-05-07T10:02:49.686Z,49.02
2019-05-07T10:05:17.962Z,48.03
2019-05-07T10:07:46.966Z,48.53
2019-05-07T10:10:14.058Z,47.91
2019-05-07T10:12:52.573Z,49.41
2019-05-07T10:15:22.451Z,48.84
2019-05-07T10:18:01.829Z,48.96
2019-05-07T10:20:29.382Z,48.12
2019-05-07T10:22:56.587Z,49.21
2019-05-07T10:25:26.976Z,48.85
2019-05-07T10:27:54.337Z,48.10
2019-05-07T10:30:21.835Z,48.61
2019-05-07T10:32:49.137Z,49.10
2019-05-07T10:35:17.262Z,48.18
2019-05-07T10:37:44.956Z,47.15
2019-05-07T10:40:13.570Z,47.35
2019-05-07T10:42:43.096Z,45.08
2019-05-07T10:45:32.353Z,48.55
2019-05-07T10:48:15.740Z,47.40
2019-05-07T10:50:45.281Z,47.23
2019-05-07T10:53:12.687Z,46.01
2019-05-07T10:55:41.855Z,44.67
2019-05-07T10:58:08.597Z,44.93
2019-05-07T11:00:35.623Z,43.55
2019-05-07T11:03:03.494Z,42.30
2019-05-07T11:05:32.684Z,42.59
2019-05-07T11:08:02.328Z,42.40
2019-05-07T11:10:29.108Z,40.81
2019-05-07T11:12:56.104Z,43.24
2019-05-07T11:15:23.119Z,43.77
2019-05-07T11:18:09.055Z,44.44
2019-05-07T11:20:48.889Z,43.75
2019-05-07T11:23:05.614Z,40.34
2019-05-07T11:25:33.479Z,42.35
2019-05-07T11:28:02.850Z,38.08
2019-05-07T11:30:31.911Z,41.03
2019-05-07T11:32:58.942Z,37.36
2019-05-07T11:35:26.301Z,38.64
2019-05-07T11:37:53.349Z,40.52
2019-05-07T11:40:22.960Z,38.49
2019-05-07T11:43:18.567Z,37.09
2019-05-07T11:45:58.974Z,37.01
2019-05-07T11:48:26.510Z,36.72
2019-05-07T11:51:09.450Z,39.53
2019-05-07T11:53:37.121Z,40.44
2019-05-07T11:56:05.942Z,42.01
2019-05-07T11:58:33.454Z,40.24
2019-05-07T12:01:05.022Z,40.00
2019-05-07T12:03:32.533Z,40.38
2019-05-07T12:06:02.061Z,38.68
2019-05-07T12:08:39.331Z,37.06
2019-05-07T12:10:58.977Z,37.08
2019-05-07T12:13:26.053Z,40.46
2019-05-07T12:15:53.388Z,39.76
2019-05-07T12:18:22.627Z,38.35
2019-05-07T12:20:49.609Z,38.66
2019-05-07T12:23:16.646Z,40.68
2019-05-07T12:25:44.117Z,40.28
2019-05-07T12:28:13.273Z,37.42
2019-05-07T12:30:51.855Z,36.42
2019-05-07T12:33:54.514Z,35.86
2019-05-07T12:36:22.790Z,37.04
2019-05-07T12:38:50.273Z,36.11
2019-05-07T12:41:29.655Z,39.68
2019-05-07T12:43:58.062Z,42.47
2019-05-07T12:46:25.314Z,40.80
2019-05-07T12:48:52.765Z,43.24
2019-05-07T12:51:33.118Z,43.56
2019-05-07T12:53:54.385Z,44.90
2019-05-07T12:56:21.533Z,43.51
2019-05-07T12:58:48.892Z,42.75
2019-05-07T13:01:35.393Z,42.29
2019-05-07T13:04:07.779Z,43.74
2019-05-07T13:06:41.813Z,44.37
2019-05-07T13:09:09.227Z,44.44
2019-05-07T13:11:36.229Z,45.17
2019-05-07T13:14:03.973Z,42.25
2019-05-07T13:16:32.383Z,43.14
2019-05-07T13:19:01.768Z,44.79
2019-05-07T13:21:28.453Z,46.77
2019-05-07T13:23:56.090Z,45.77
2019-05-07T13:26:24.552Z,45.41
2019-05-07T13:28:53.173Z,44.87
2019-05-07T13:31:22.788Z,44.74
2019-05-07T13:33:52.339Z,45.26
2019-05-07T13:36:19.690Z,45.14
2019-05-07T13:39:04.665Z,43.72
2019-05-07T13:42:03.181Z,46.48
2019-05-07T13:44:55.608Z,44.94
2019-05-07T13:47:26.494Z,45.75
2019-05-07T13:49:54.502Z,44.02
2019-05-07T13:52:23.062Z,45.89
2019-05-07T13:54:52.535Z,46.71
2019-05-07T13:57:22.684Z,44.76
2019-05-07T13:59:52.862Z,44.82
2019-05-07T14:02:22.340Z,44.72
2019-05-07T14:04:49.506Z,46.58
2019-05-07T14:07:16.593Z,46.72
2019-05-07T14:09:44.374Z,46.62
2019-05-07T14:12:12.334Z,46.08
2019-05-07T14:14:42.436Z,44.29
2019-05-07T14:17:12.690Z,44.47
2019-05-07T14:19:42.134Z,42.49
2019-05-07T14:22:16.352Z,44.33
2019-05-07T14:24:38.651Z,45.60
2019-05-07T14:27:05.698Z,44.74
2019-05-07T14:29:32.709Z,42.65
2019-05-07T14:32:08.579Z,41.61
2019-05-07T14:34:55.722Z,40.49
2019-05-07T14:37:32.523Z,41.44
2019-05-07T14:39:59.782Z,43.36
2019-05-07T14:42:34.422Z,44.46
2019-05-07T14:45:01.779Z,44.82
2019-05-07T14:47:28.842Z,45.55
2019-05-07T14:49:55.910Z,45.80
2019-05-07T14:52:32.187Z,47.50
2019-05-07T14:54:52.175Z,48.57
2019-05-07T14:57:29.144Z,50.23
2019-05-07T14:59:57.750Z,52.85
2019-05-07T15:02:34.283Z,51.22
2019-05-07T15:05:02.762Z,52.30
2019-05-07T15:07:30.129Z,51.87
2019-05-07T15:10:06.974Z,52.83
2019-05-07T15:12:39.501Z,52.30
2019-05-07T15:15:21.942Z,52.78
2019-05-07T15:18:32.244Z,52.95
2019-05-07T15:21:02.399Z,51.81
2019-05-07T15:23:39.757Z,51.76
2019-05-07T15:26:07.518Z,51.15
2019-05-07T15:28:35.657Z,53.10
2019-05-07T15:31:09.575Z,53.81
2019-05-07T15:33:38.838Z,52.39
2019-05-07T15:36:13.176Z,52.14
2019-05-07T15:38:40.319Z,50.63
2019-05-07T15:41:07.650Z,49.78
2019-05-07T15:43:46.369Z,48.97
2019-05-07T15:46:25.803Z,50.11
2019-05-07T15:49:12.619Z,47.41
2019-05-07T15:51:41.924Z,48.46
2019-05-07T15:54:13.030Z,45.72
2019-05-07T15:56:40.299Z,45.79
2019-05-07T15:59:09.339Z,47.54
2019-05-07T16:01:36.943Z,47.17
2019-05-07T16:04:04.100Z,48.30
2019-05-07T16:06:32.357Z,47.52
2019-05-07T16:09:02.430Z,46.78
2019-05-07T16:11:32.453Z,47.24
2019-05-07T16:14:14.656Z,46.83
2019-05-07T16:16:45.816Z,45.89
2019-05-07T16:19:23.376Z,47.33
2019-05-07T16:21:51.122Z,44.17
2019-05-07T16:24:18.195Z,45.46
2019-05-07T16:26:46.532Z,45.52
2019-05-07T16:29:14.773Z,48.44
2019-05-07T16:31:43.500Z,50.97
2019-05-07T16:34:12.637Z,50.25
2019-05-07T16:36:41.780Z,50.72
2019-05-07T16:39:09.200Z,50.44
2019-05-07T16:41:36.492Z,50.54
2019-05-07T16:44:04.443Z,50.19
2019-05-07T16:46:31.528Z,51.08
2019-05-07T16:48:58.660Z,52.14
2019-05-07T16:51:25.994Z,51.48
2019-05-07T16:53:53.036Z,51.69
2019-05-07T16:56:22.646Z,51.47
2019-05-07T16:58:53.809Z,51.33
2019-05-07T17:01:24.593Z,51.06
2019-05-07T17:03:54.807Z,51.00
2019-05-07T17:06:22.446Z,52.42
2019-05-07T17:09:13.496Z,52.72
2019-05-07T17:11:43.672Z,52.20
2019-05-07T17:14:12.893Z,52.18
2019-05-07T17:16:40.200Z,51.94
2019-05-07T17:19:08.694Z,52.86
2019-05-07T17:21:38.704Z,51.63
2019-05-07T17:24:06.389Z,52.34
2019-05-07T17:26:35.863Z,52.32
2019-05-07T17:29:03.708Z,53.43
2019-05-07T17:31:31.824Z,52.99
2019-05-07T17:33:58.988Z,52.83
2019-05-07T17:36:26.064Z,53.02
2019-05-07T17:38:53.460Z,52.62
2019-05-07T17:41:24.802Z,53.05
2019-05-07T17:43:49.423Z,52.83
2019-05-07T17:46:17.693Z,53.33
2019-05-07T17:48:44.784Z,52.54
2019-05-07T17:51:34.508Z,53.97
2019-05-07T17:54:01.784Z,54.24
2019-05-07T17:56:28.883Z,54.12
2019-05-07T17:59:02.866Z,54.47
2019-05-07T18:01:42.016Z,53.65
2019-05-07T18:04:13.622Z,54.21
2019-05-07T18:06:42.806Z,54.41
2019-05-07T18:09:12.765Z,54.53
2019-05-07T18:11:39.842Z,55.40
2019-05-07T18:14:07.172Z,55.54
2019-05-07T18:16:54.211Z,54.55
2019-05-07T18:19:22.234Z,55.36
2019-05-07T18:21:49.698Z,55.35
2019-05-07T18:24:17.056Z,55.18
2019-05-07T18:26:44.255Z,55.90
2019-05-07T18:29:12.003Z,56.05
2019-05-07T18:32:04.989Z,56.04
2019-05-07T18:34:32.239Z,56.57
2019-05-07T18:36:59.259Z,56.98
2019-05-07T18:39:27.976Z,57.29
2019-05-07T18:41:55.456Z,57.84
2019-05-07T18:44:22.768Z,57.68
2019-05-07T18:46:49.813Z,58.50
2019-05-07T18:49:16.967Z,57.56
2019-05-07T18:51:44.295Z,58.27
2019-05-07T18:54:13.279Z,58.36
2019-05-07T18:56:42.162Z,58.31
2019-05-07T18:59:09.563Z,59.27
2019-05-07T19:01:38.911Z,59.45
2019-05-07T19:04:06.079Z,59.32
2019-05-07T19:06:33.127Z,59.17
2019-05-07T19:09:00.202Z,60.22
2019-05-07T19:11:27.728Z,59.96
2019-05-07T19:13:56.144Z,60.71
2019-05-07T19:16:23.818Z,60.04
2019-05-07T19:18:52.511Z,59.74
2019-05-07T19:21:22.223Z,59.64
2019-05-07T19:23:48.938Z,60.08
2019-05-07T19:26:15.939Z,60.17
2019-05-07T19:28:43.679Z,60.49
2019-05-07T19:31:14.212Z,61.11
2019-05-07T19:33:43.594Z,61.11
2019-05-07T19:36:10.604Z,61.42
2019-05-07T19:38:37.647Z,62.33
2019-05-07T19:41:07.283Z,62.32
2019-05-07T19:43:36.321Z,63.24
2019-05-07T19:46:03.311Z,63.53
2019-05-07T19:48:32.286Z,63.15
2019-05-07T19:50:59.620Z,64.27
2019-05-07T19:53:26.863Z,63.47
2019-05-07T19:56:06.410Z,63.46
2019-05-07T19:58:33.979Z,63.98
2019-05-07T20:01:01.735Z,65.64
2019-05-07T20:03:28.752Z,65.12
2019-05-07T20:05:56.243Z,67.40
2019-05-07T20:08:23.350Z,67.17
2019-05-07T20:10:56.362Z,66.58
2019-05-07T20:13:23.423Z,66.11
2019-05-07T20:15:55.895Z,65.77
2019-05-07T20:18:23.011Z,66.12
2019-05-07T20:20:50.489Z,66.53
2019-05-07T20:23:27.001Z,66.66
2019-05-07T20:26:06.308Z,66.29
2019-05-07T20:28:33.996Z,67.82
2019-05-07T20:31:01.130Z,67.42
2019-05-07T20:33:29.036Z,66.95
2019-05-07T20:35:56.416Z,67.95
2019-05-07T20:38:23.768Z,67.05
2019-05-07T20:40:52.147Z,67.50
2019-05-07T20:43:19.920Z,68.10
2019-05-07T20:45:46.932Z,67.94
2019-05-07T20:48:14.343Z,68.32
2019-05-07T20:50:42.431Z,68.70
2019-05-07T20:53:09.544Z,68.26
2019-05-07T20:55:47.577Z,69.16
2019-05-07T20:58:14.628Z,69.81
2019-05-07T21:00:43.397Z,69.64
2019-05-07T21:03:20.397Z,70.09
2019-05-07T21:05:49.460Z,70.63
2019-05-07T21:08:16.450Z,70.76
2019-05-07T21:10:43.548Z,70.97
2019-05-07T21:13:26.399Z,71.01
2019-05-07T21:15:41.891Z,71.21
2019-05-07T21:18:09.236Z,71.29
2019-05-07T21:20:36.312Z,71.75
2019-05-07T21:23:03.562Z,71.85
2019-05-07T21:25:42.279Z,71.56
2019-05-07T21:28:02.001Z,71.25
2019-05-07T21:30:28.612Z,71.47
2019-05-07T21:32:55.637Z,71.71
2019-05-07T21:35:23.800Z,72.27
2019-05-07T21:37:52.410Z,71.90
2019-05-07T21:40:19.704Z,72.09
2019-05-07T21:42:46.732Z,72.39
2019-05-07T21:45:14.624Z,72.23
2019-05-07T21:47:42.879Z,72.49
2019-05-07T21:50:12.435Z,72.41
2019-05-07T21:52:42.667Z,72.39
2019-05-07T21:55:35.839Z,72.57
2019-05-07T21:58:22.531Z,72.80
2019-05-07T22:01:09.357Z,73.26
2019-05-07T22:03:36.524Z,73.41
2019-05-07T22:06:03.637Z,73.71
2019-05-07T22:08:32.605Z,73.55
2019-05-07T22:11:02.476Z,73.42
2019-05-07T22:13:29.476Z,72.92
2019-05-07T22:15:56.489Z,73.11
2019-05-07T22:18:23.505Z,72.94
2019-05-07T22:20:52.200Z,73.42
2019-05-07T22:23:19.512Z,73.13
2019-05-07T22:25:46.565Z,73.01
2019-05-07T22:28:13.840Z,73.20
2019-05-07T22:31:02.368Z,72.92
2019-05-07T22:33:39.053Z,72.67
2019-05-07T22:36:07.238Z,72.65
2019-05-07T22:38:34.987Z,72.47
2019-05-07T22:41:02.199Z,72.16
2019-05-07T22:43:31.709Z,72.37
2019-05-07T22:45:58.524Z,72.45
2019-05-07T22:48:25.681Z,72.73
2019-05-07T22:50:55.298Z,72.95
2019-05-07T22:53:22.333Z,73.32
2019-05-07T22:55:49.703Z,73.72
2019-05-07T22:58:25.460Z,74.18
2019-05-07T23:00:57.117Z,74.37
2019-05-07T23:03:24.168Z,74.50
2019-05-07T23:05:53.139Z,74.49
2019-05-07T23:08:22.184Z,74.87
2019-05-07T23:10:52.457Z,74.85
2019-05-07T23:13:18.636Z,74.61
2019-05-07T23:15:45.692Z,74.65
2019-05-07T23:18:13.130Z,74.83
2019-05-07T23:20:42.704Z,74.72
2019-05-07T23:23:13.941Z,74.84
2019-05-07T23:25:38.937Z,74.98
2019-05-07T23:28:07.811Z,75.10
2019-05-07T23:30:34.849Z,74.97
2019-05-07T23:33:02.436Z,75.17
2019-05-07T23:35:32.722Z,75.05
2019-05-07T23:37:59.472Z,75.09
2019-05-07T23:40:41.858Z,75.28
2019-05-07T23:43:12.300Z,75.37
2019-05-07T23:45:42.001Z,75.25
2019-05-07T23:48:08.698Z,75.31
2019-05-07T23:50:35.844Z,75.31
2019-05-07T23:53:02.896Z,75.14
2019-05-07T23:55:31.832Z,75.03
2019-05-07T23:57:59.241Z,74.85
